createdAt,value
2023-07-18T00:02:10.578Z,16.31
2023-07-18T00:04:59.374Z,16.25
2023-07-18T00:07:47.117Z,16.18
2023-07-18T00:10:35.504Z,16.11
2023-07-18T00:13:26.646Z,16.03
2023-07-18T00:16:20.361Z,15.99
2023-07-18T00:19:08.073Z,15.96
2023-07-18T00:21:57.365Z,15.92
2023-07-18T00:24:44.777Z,15.91
2023-07-18T00:27:32.304Z,15.90
2023-07-18T00:30:20.743Z,15.92
2023-07-18T00:33:08.475Z,15.99
2023-07-18T00:35:56.394Z,15.95
2023-07-18T00:38:45.203Z,15.93
2023-07-18T00:41:32.581Z,15.94
2023-07-18T00:45:40.655Z,15.90
2023-07-18T00:48:30.189Z,15.88
2023-07-18T00:51:18.447Z,15.87
2023-07-18T00:54:10.341Z,15.86
2023-07-18T00:56:58.622Z,15.84
2023-07-18T00:59:46.425Z,15.80
2023-07-18T01:02:34.083Z,15.79
2023-07-18T01:05:23.391Z,15.81
2023-07-18T01:08:11.516Z,15.79
2023-07-18T01:11:00.318Z,15.76
2023-07-18T01:13:47.979Z,15.74
2023-07-18T01:16:35.414Z,15.70
2023-07-18T01:19:23.223Z,15.68
2023-07-18T01:22:12.276Z,15.66
2023-07-18T01:24:59.679Z,15.62
2023-07-18T01:27:48.256Z,15.58
2023-07-18T01:30:36.304Z,15.51
2023-07-18T01:33:24.129Z,15.45
2023-07-18T01:36:11.570Z,15.38
2023-07-18T01:39:00.739Z,15.35
2023-07-18T01:41:48.817Z,15.26
2023-07-18T01:44:37.965Z,15.22
2023-07-18T01:47:25.422Z,15.19
2023-07-18T01:50:12.829Z,15.15
2023-07-18T01:53:01.027Z,15.12
2023-07-18T01:55:50.868Z,15.09
2023-07-18T01:58:38.416Z,15.02
2023-07-18T02:01:27.222Z,14.94
2023-07-18T02:04:15.212Z,14.89
2023-07-18T02:07:02.961Z,14.87
2023-07-18T02:09:51.522Z,14.85
2023-07-18T02:12:40.270Z,14.80
2023-07-18T02:15:27.918Z,14.79
2023-07-18T02:18:15.577Z,14.75
2023-07-18T02:21:03.117Z,14.71
2023-07-18T02:23:50.598Z,14.68
2023-07-18T02:26:38.704Z,14.66
2023-07-18T02:29:27.717Z,14.63
2023-07-18T02:32:18.110Z,14.59
2023-07-18T02:35:06.861Z,14.53
2023-07-18T02:37:55.465Z,14.50
2023-07-18T02:40:45.420Z,14.48
2023-07-18T02:43:32.936Z,14.43
2023-07-18T02:46:21.814Z,14.39
2023-07-18T02:49:09.466Z,14.36
2023-07-18T02:51:57.443Z,14.35
2023-07-18T02:54:45.338Z,14.33
2023-07-18T02:57:34.050Z,14.32
2023-07-18T03:00:26.869Z,14.28
2023-07-18T03:03:15.926Z,14.23
2023-07-18T03:06:04.727Z,14.22
2023-07-18T03:08:52.927Z,14.16
2023-07-18T03:11:40.811Z,14.11
2023-07-18T03:14:29.296Z,14.07
2023-07-18T03:17:16.660Z,14.05
2023-07-18T03:20:12.702Z,14.03
2023-07-18T03:23:00.682Z,14.00
2023-07-18T03:25:49.370Z,13.98
2023-07-18T03:28:37.019Z,13.92
2023-07-18T03:31:24.881Z,13.93
2023-07-18T03:34:12.655Z,13.89
2023-07-18T03:37:01.702Z,13.88
2023-07-18T03:39:49.152Z,13.87
2023-07-18T03:42:36.830Z,13.86
2023-07-18T03:45:24.658Z,13.84
2023-07-18T03:48:12.479Z,13.78
2023-07-18T03:51:06.307Z,13.76
2023-07-18T03:53:55.451Z,13.76
2023-07-18T03:56:43.190Z,13.81
2023-07-18T03:59:31.055Z,13.84
2023-07-18T04:02:18.663Z,13.85
2023-07-18T04:05:06.882Z,13.87
2023-07-18T04:07:54.872Z,13.87
2023-07-18T04:10:43.965Z,13.83
2023-07-18T04:13:31.428Z,13.83
2023-07-18T04:16:18.926Z,13.81
2023-07-18T04:19:09.068Z,13.77
2023-07-18T04:21:57.632Z,13.78
2023-07-18T04:24:45.628Z,13.80
2023-07-18T04:27:34.509Z,13.80
2023-07-18T04:30:22.458Z,13.85
2023-07-18T04:33:13.579Z,13.89
2023-07-18T04:36:01.886Z,13.94
2023-07-18T04:38:49.904Z,13.97
2023-07-18T04:41:49.403Z,13.98
2023-07-18T04:44:43.675Z,14.02
2023-07-18T04:47:31.560Z,14.09
2023-07-18T04:50:19.944Z,14.15
2023-07-18T04:53:07.603Z,14.19
2023-07-18T04:55:56.752Z,14.27
2023-07-18T04:58:44.195Z,14.32
2023-07-18T05:01:32.924Z,14.39
2023-07-18T05:04:21.011Z,14.47
2023-07-18T05:07:09.736Z,14.51
2023-07-18T05:09:57.214Z,14.58
2023-07-18T05:12:44.768Z,14.65
2023-07-18T05:15:32.371Z,14.72
2023-07-18T05:18:21.384Z,14.80
2023-07-18T05:21:09.979Z,14.88
2023-07-18T05:23:57.789Z,14.93
2023-07-18T05:26:45.452Z,14.99
2023-07-18T05:29:33.011Z,15.02
2023-07-18T05:32:20.453Z,15.10
2023-07-18T05:35:12.532Z,15.14
2023-07-18T05:38:00.019Z,15.22
2023-07-18T05:40:47.834Z,15.34
2023-07-18T05:43:35.343Z,15.40
2023-07-18T05:46:22.843Z,15.48
2023-07-18T05:49:10.888Z,15.58
2023-07-18T05:52:00.159Z,15.69
2023-07-18T05:54:47.926Z,15.78
2023-07-18T05:57:35.791Z,15.87
2023-07-18T06:00:26.663Z,16.06
2023-07-18T06:03:14.861Z,16.18
2023-07-18T06:06:02.484Z,16.31
2023-07-18T06:08:51.930Z,16.45
2023-07-18T06:11:39.541Z,16.62
2023-07-18T06:14:27.754Z,16.77
2023-07-18T06:17:15.331Z,16.90
2023-07-18T06:20:03.310Z,17.08
2023-07-18T06:22:51.078Z,17.30
2023-07-18T06:25:40.386Z,17.49
2023-07-18T06:28:28.245Z,17.69
2023-07-18T06:31:15.684Z,17.82
2023-07-18T06:34:03.113Z,18.01
2023-07-18T06:36:50.567Z,18.22
2023-07-18T06:39:38.256Z,18.41
2023-07-18T06:42:27.950Z,18.59
2023-07-18T06:45:16.089Z,18.78
2023-07-18T06:48:03.964Z,19.01
2023-07-18T06:50:57.561Z,19.28
2023-07-18T06:53:45.171Z,19.54
2023-07-18T06:56:32.753Z,19.69
2023-07-18T06:59:21.536Z,19.95
2023-07-18T07:02:11.371Z,20.30
2023-07-18T07:04:58.957Z,20.48
2023-07-18T07:07:46.511Z,20.44
2023-07-18T07:10:34.340Z,20.64
2023-07-18T07:13:22.446Z,20.87
2023-07-18T07:16:12.124Z,21.13
2023-07-18T07:19:00.130Z,21.52
2023-07-18T07:21:48.213Z,21.75
2023-07-18T07:24:36.146Z,21.90
2023-07-18T07:27:24.411Z,21.88
2023-07-18T07:30:16.345Z,22.09
2023-07-18T07:33:07.127Z,22.44
2023-07-18T07:35:55.149Z,22.82
2023-07-18T07:38:43.246Z,23.17
2023-07-18T07:41:31.385Z,23.56
2023-07-18T07:44:19.115Z,23.75
2023-07-18T07:47:07.812Z,23.29
2023-07-18T07:49:56.964Z,23.55
2023-07-18T07:52:46.606Z,23.99
2023-07-18T07:55:34.689Z,24.27
2023-07-18T07:58:22.715Z,24.55
2023-07-18T08:01:11.302Z,24.97
2023-07-18T08:03:59.408Z,25.27
2023-07-18T08:06:48.400Z,25.43
2023-07-18T08:09:37.696Z,25.53
2023-07-18T08:12:33.115Z,25.74
2023-07-18T08:15:23.221Z,26.05
2023-07-18T08:18:11.496Z,26.28
2023-07-18T08:20:59.492Z,26.48
2023-07-18T08:23:48.563Z,26.55
2023-07-18T08:26:36.306Z,26.81
2023-07-18T08:29:25.043Z,26.81
2023-07-18T08:32:13.162Z,27.02
2023-07-18T08:35:01.106Z,27.19
2023-07-18T08:37:49.665Z,27.56
2023-07-18T08:40:38.533Z,27.96
2023-07-18T08:43:27.408Z,28.09
2023-07-18T08:46:16.867Z,27.42
2023-07-18T08:49:05.659Z,27.70
2023-07-18T08:51:54.920Z,28.37
2023-07-18T08:54:42.856Z,28.87
2023-07-18T08:57:32.438Z,29.10
2023-07-18T09:00:22.020Z,29.21
2023-07-18T09:03:10.300Z,29.34
2023-07-18T09:06:03.225Z,29.18
2023-07-18T09:08:51.600Z,29.12
2023-07-18T09:11:39.510Z,29.00
2023-07-18T09:14:30.663Z,29.13
2023-07-18T09:17:18.778Z,29.35
2023-07-18T09:20:09.530Z,29.71
2023-07-18T09:22:58.772Z,30.11
2023-07-18T09:25:46.712Z,30.29
2023-07-18T09:28:34.693Z,30.65
2023-07-18T09:31:25.891Z,30.99
2023-07-18T09:34:14.673Z,31.36
2023-07-18T09:37:04.908Z,31.36
2023-07-18T09:39:53.372Z,31.58
2023-07-18T09:42:45.264Z,31.89
2023-07-18T09:45:34.961Z,32.09
2023-07-18T09:48:24.973Z,32.27
2023-07-18T09:51:15.308Z,32.55
2023-07-18T09:54:07.414Z,32.71
2023-07-18T09:56:58.708Z,32.79
2023-07-18T09:59:50.386Z,33.06
2023-07-18T10:02:38.263Z,33.24
2023-07-18T10:05:29.480Z,32.93
2023-07-18T10:08:17.608Z,32.77
2023-07-18T10:11:09.034Z,33.06
2023-07-18T10:14:15.959Z,33.24
2023-07-18T10:17:07.527Z,33.57
2023-07-18T10:19:57.248Z,33.60
2023-07-18T10:22:58.203Z,33.61
2023-07-18T10:25:59.847Z,33.27
2023-07-18T10:28:49.031Z,33.72
2023-07-18T10:31:38.620Z,33.63
2023-07-18T10:34:26.448Z,33.88
2023-07-18T10:37:15.546Z,34.16
2023-07-18T10:40:07.400Z,34.16
2023-07-18T10:42:55.310Z,33.97
2023-07-18T10:45:44.497Z,33.87
2023-07-18T10:48:32.580Z,34.15
2023-07-18T10:51:20.841Z,34.29
2023-07-18T10:54:10.749Z,34.51
2023-07-18T10:57:00.843Z,34.54
2023-07-18T10:59:48.738Z,34.50
2023-07-18T11:02:42.411Z,34.39
2023-07-18T11:05:30.451Z,34.60
2023-07-18T11:08:26.989Z,34.17
2023-07-18T11:11:19.455Z,34.45
2023-07-18T11:14:08.994Z,34.57
2023-07-18T11:16:58.615Z,34.70
2023-07-18T11:19:47.700Z,35.05
2023-07-18T11:22:36.288Z,35.26
2023-07-18T11:25:24.339Z,35.38
2023-07-18T11:28:12.916Z,35.47
2023-07-18T11:31:02.246Z,35.31
2023-07-18T11:33:51.338Z,35.39
2023-07-18T11:36:42.228Z,35.33
2023-07-18T11:39:34.610Z,35.25
2023-07-18T11:42:22.627Z,35.23
2023-07-18T11:45:11.794Z,35.18
2023-07-18T11:48:01.873Z,35.06
2023-07-18T11:50:51.313Z,35.03
2023-07-18T11:53:39.301Z,34.96
2023-07-18T11:56:27.248Z,35.07
2023-07-18T11:59:15.332Z,34.96
2023-07-18T12:02:04.305Z,35.05
2023-07-18T12:04:54.005Z,35.24
2023-07-18T12:07:41.722Z,35.24
2023-07-18T12:10:29.765Z,35.14
2023-07-18T12:13:18.198Z,35.41
2023-07-18T12:16:06.156Z,35.58
2023-07-18T12:18:54.305Z,35.67
2023-07-18T12:21:51.574Z,35.83
2023-07-18T12:24:40.471Z,35.96
2023-07-18T12:27:28.252Z,35.90
2023-07-18T12:30:16.592Z,35.71
2023-07-18T12:33:04.411Z,35.48
2023-07-18T12:35:56.575Z,34.92
2023-07-18T12:38:46.062Z,34.52
2023-07-18T12:41:34.651Z,34.37
2023-07-18T12:44:27.993Z,34.05
2023-07-18T12:47:17.231Z,34.21
2023-07-18T12:50:07.379Z,34.38
2023-07-18T12:52:59.936Z,34.43
2023-07-18T12:55:48.980Z,34.50
2023-07-18T12:58:36.800Z,34.45
2023-07-18T13:01:24.909Z,34.46
2023-07-18T13:04:12.936Z,34.51
2023-07-18T13:07:00.808Z,34.41
2023-07-18T13:09:48.829Z,34.60
2023-07-18T13:12:38.251Z,34.48
2023-07-18T13:15:25.932Z,34.56
2023-07-18T13:18:13.985Z,34.68
2023-07-18T13:21:01.704Z,34.07
2023-07-18T13:23:50.763Z,34.45
2023-07-18T13:26:39.128Z,34.73
2023-07-18T13:29:28.484Z,34.85
2023-07-18T13:32:16.357Z,34.80
2023-07-18T13:35:04.421Z,34.75
2023-07-18T13:37:52.634Z,34.64
2023-07-18T13:40:40.673Z,34.12
2023-07-18T13:43:29.641Z,34.24
2023-07-18T13:46:19.385Z,34.36
2023-07-18T13:49:07.570Z,34.38
2023-07-18T13:51:55.843Z,34.68
2023-07-18T13:54:43.526Z,35.05
2023-07-18T13:57:32.346Z,34.92
2023-07-18T14:00:20.823Z,35.03
2023-07-18T14:03:23.385Z,34.28
2023-07-18T14:06:16.808Z,33.57
2023-07-18T14:09:04.657Z,32.81
2023-07-18T14:11:52.598Z,32.81
2023-07-18T14:14:40.450Z,33.75
2023-07-18T14:17:29.969Z,33.64
2023-07-18T14:20:20.106Z,33.50
2023-07-18T14:23:07.797Z,33.53
2023-07-18T14:25:56.072Z,32.96
2023-07-18T14:28:44.340Z,33.59
2023-07-18T14:31:33.951Z,34.43
2023-07-18T14:34:21.996Z,34.97
2023-07-18T14:37:11.330Z,35.16
2023-07-18T14:40:05.222Z,35.00
2023-07-18T14:42:53.104Z,35.57
2023-07-18T14:45:41.134Z,35.70
2023-07-18T14:48:29.262Z,35.90
2023-07-18T14:51:17.249Z,35.27
2023-07-18T14:54:06.674Z,35.30
2023-07-18T14:56:54.428Z,35.83
2023-07-18T14:59:42.486Z,36.26
2023-07-18T15:02:30.651Z,36.78
2023-07-18T15:05:18.647Z,37.15
2023-07-18T15:08:06.997Z,37.34
2023-07-18T15:10:56.244Z,37.11
2023-07-18T15:13:44.395Z,36.58
2023-07-18T15:16:32.557Z,35.74
2023-07-18T15:19:20.943Z,36.15
2023-07-18T15:22:08.715Z,36.46
2023-07-18T15:24:57.850Z,35.69
2023-07-18T15:27:47.429Z,35.25
2023-07-18T15:30:35.944Z,35.12
2023-07-18T15:33:26.731Z,35.07
2023-07-18T15:36:16.276Z,34.70
2023-07-18T15:39:05.346Z,34.69
2023-07-18T15:41:53.216Z,35.49
2023-07-18T15:44:43.211Z,36.20
2023-07-18T15:47:31.297Z,36.98
2023-07-18T15:50:20.447Z,37.52
2023-07-18T15:53:08.395Z,37.93
2023-07-18T15:55:56.660Z,37.71
2023-07-18T15:58:44.839Z,37.63
2023-07-18T16:01:34.139Z,37.17
2023-07-18T16:04:22.325Z,36.96
2023-07-18T16:07:10.407Z,36.81
2023-07-18T16:09:59.381Z,35.96
2023-07-18T16:12:47.585Z,36.51
2023-07-18T16:15:35.638Z,36.37
2023-07-18T16:18:25.185Z,37.22
2023-07-18T16:21:13.349Z,37.60
2023-07-18T16:24:01.606Z,37.94
2023-07-18T16:26:49.660Z,38.24
2023-07-18T16:29:37.987Z,38.28
2023-07-18T16:32:28.073Z,38.44
2023-07-18T16:35:18.426Z,38.29
2023-07-18T16:38:06.587Z,38.14
2023-07-18T16:40:56.775Z,38.09
2023-07-18T16:43:44.359Z,38.13
2023-07-18T16:46:33.261Z,38.15
2023-07-18T16:49:21.286Z,38.09
2023-07-18T16:52:11.048Z,37.88
2023-07-18T16:54:59.075Z,37.68
2023-07-18T16:57:46.805Z,37.60
2023-07-18T17:00:35.123Z,37.44
2023-07-18T17:03:23.006Z,37.35
2023-07-18T17:06:12.101Z,37.15
2023-07-18T17:09:01.491Z,37.08
2023-07-18T17:11:49.294Z,36.93
2023-07-18T17:14:37.305Z,36.70
2023-07-18T17:17:25.557Z,36.38
2023-07-18T17:20:14.729Z,35.85
2023-07-18T17:23:03.289Z,35.40
2023-07-18T17:25:52.474Z,35.07
2023-07-18T17:28:40.516Z,34.67
2023-07-18T17:31:28.633Z,34.24
2023-07-18T17:34:17.972Z,33.91
2023-07-18T17:37:06.571Z,33.61
2023-07-18T17:42:48.169Z,32.77
2023-07-18T17:45:36.345Z,32.39
2023-07-18T17:48:24.587Z,32.01
2023-07-18T17:51:12.783Z,31.73
2023-07-18T17:54:00.470Z,31.38
2023-07-18T17:56:48.735Z,31.14
2023-07-18T17:59:38.107Z,30.91
2023-07-18T18:02:26.674Z,30.65
2023-07-18T18:05:34.937Z,30.36
2023-07-18T18:08:22.761Z,30.20
2023-07-18T18:11:10.891Z,29.98
2023-07-18T18:13:59.809Z,29.77
2023-07-18T18:16:48.889Z,29.60
2023-07-18T18:19:36.897Z,29.31
2023-07-18T18:22:24.763Z,29.14
2023-07-18T18:25:12.869Z,28.87
2023-07-18T18:28:00.901Z,28.84
2023-07-18T18:30:49.431Z,28.53
2023-07-18T18:33:38.571Z,28.28
2023-07-18T18:36:27.078Z,28.03
2023-07-18T18:39:14.918Z,27.82
2023-07-18T18:42:02.818Z,27.58
2023-07-18T18:44:50.755Z,27.49
2023-07-18T18:47:40.746Z,27.36
2023-07-18T18:50:30.054Z,27.12
2023-07-18T18:53:18.248Z,26.98
2023-07-18T18:56:06.619Z,26.80
2023-07-18T18:58:54.434Z,26.58
2023-07-18T19:01:41.811Z,26.42
2023-07-18T19:04:29.389Z,26.30
2023-07-18T19:07:18.619Z,26.20
2023-07-18T19:10:07.298Z,26.07
2023-07-18T19:12:55.017Z,25.95
2023-07-18T19:15:42.949Z,25.80
2023-07-18T19:18:30.635Z,25.62
2023-07-18T19:21:18.552Z,25.48
2023-07-18T19:24:08.375Z,25.37
2023-07-18T19:26:56.340Z,25.23
2023-07-18T19:29:45.690Z,25.11
2023-07-18T19:32:33.724Z,25.02
2023-07-18T19:35:21.202Z,24.89
2023-07-18T19:38:08.796Z,24.76
2023-07-18T19:40:57.653Z,24.67
2023-07-18T19:43:45.528Z,24.55
2023-07-18T19:46:33.484Z,24.47
2023-07-18T19:49:21.423Z,24.35
2023-07-18T19:52:09.684Z,24.26
2023-07-18T19:54:57.434Z,24.17
2023-07-18T19:57:46.597Z,24.08
2023-07-18T20:00:34.266Z,24.03
2023-07-18T20:03:22.321Z,23.97
2023-07-18T20:06:10.220Z,23.86
2023-07-18T20:08:58.083Z,23.77
2023-07-18T20:11:45.482Z,23.69
2023-07-18T20:14:34.452Z,23.60
2023-07-18T20:17:22.295Z,23.53
2023-07-18T20:20:12.083Z,23.45
2023-07-18T20:22:59.848Z,23.40
2023-07-18T20:25:47.463Z,23.35
2023-07-18T20:28:34.971Z,23.28
2023-07-18T20:31:24.260Z,23.24
2023-07-18T20:34:14.859Z,23.19
2023-07-18T20:37:02.499Z,23.15
2023-07-18T20:39:50.171Z,23.08
2023-07-18T20:42:37.748Z,23.05
2023-07-18T20:45:27.007Z,22.98
2023-07-18T20:48:15.872Z,22.89
2023-07-18T20:51:03.663Z,22.82
2023-07-18T20:53:52.638Z,22.76
2023-07-18T20:56:40.233Z,22.72
2023-07-18T20:59:29.688Z,22.69
2023-07-18T21:02:17.571Z,22.61
2023-07-18T21:05:07.472Z,22.56
2023-07-18T21:07:55.469Z,22.48
2023-07-18T21:10:43.287Z,22.39
2023-07-18T21:13:30.852Z,22.28
2023-07-18T21:16:19.714Z,22.22
2023-07-18T21:19:07.377Z,22.15
2023-07-18T21:21:56.818Z,22.09
2023-07-18T21:24:44.446Z,22.04
2023-07-18T21:27:32.067Z,21.99
2023-07-18T21:30:19.844Z,21.92
2023-07-18T21:33:07.530Z,21.84
2023-07-18T21:35:55.269Z,21.78
2023-07-18T21:38:44.092Z,21.74
2023-07-18T21:41:32.088Z,21.66
2023-07-18T21:44:19.809Z,21.63
2023-07-18T21:47:09.032Z,21.55
2023-07-18T21:49:56.734Z,21.50
2023-07-18T21:52:44.950Z,21.46
2023-07-18T21:55:33.945Z,21.39
2023-07-18T21:58:22.295Z,21.30
2023-07-18T22:01:09.793Z,21.26
2023-07-18T22:03:57.697Z,21.18
2023-07-18T22:06:45.337Z,21.12
2023-07-18T22:09:33.029Z,21.06
2023-07-18T22:12:22.100Z,20.99
2023-07-18T22:15:10.954Z,20.89
2023-07-18T22:18:09.042Z,20.77
2023-07-18T22:21:04.478Z,20.69
2023-07-18T22:23:52.345Z,20.61
2023-07-18T22:26:40.334Z,20.52
2023-07-18T22:29:29.122Z,20.46
2023-07-18T22:32:16.884Z,20.42
2023-07-18T22:35:05.038Z,20.39
2023-07-18T22:37:52.762Z,20.34
2023-07-18T22:40:40.429Z,20.26
2023-07-18T22:43:28.113Z,20.20
2023-07-18T22:46:17.322Z,20.12
2023-07-18T22:49:04.877Z,20.10
2023-07-18T22:51:52.244Z,20.05
2023-07-18T22:54:40.052Z,20.01
2023-07-18T22:57:27.960Z,19.97
2023-07-18T23:00:16.391Z,19.93
2023-07-18T23:03:05.808Z,19.93
2023-07-18T23:05:53.439Z,19.91
2023-07-18T23:08:40.935Z,19.90
2023-07-18T23:11:28.320Z,19.90
2023-07-18T23:14:15.795Z,19.88
2023-07-18T23:17:03.286Z,19.90
2023-07-18T23:19:52.515Z,19.84
2023-07-18T23:22:40.281Z,19.78
2023-07-18T23:25:28.005Z,19.73
2023-07-18T23:28:17.671Z,19.72
2023-07-18T23:31:07.319Z,19.68
2023-07-18T23:33:55.284Z,19.66
2023-07-18T23:36:44.377Z,19.62
2023-07-18T23:39:32.251Z,19.60
2023-07-18T23:42:19.786Z,19.56
2023-07-18T23:45:08.730Z,19.51
2023-07-18T23:47:56.653Z,19.43
2023-07-18T23:50:45.718Z,19.35
2023-07-18T23:53:35.284Z,19.33
2023-07-18T23:56:23.331Z,19.31
2023-07-18T23:59:11.283Z,19.22
